This is the latest recevied weather packets stored in our database for station/object WA2TQI. If no packets are shown the sender has not sent any weather packets the latest 10 day(s).
| Time | Temp. | Humidity | Pressure | Rain* | Wind** | Luminosity | Snow |
|---|---|---|---|---|---|---|---|
| 1777820172 | 11.11° C | 54% | 1015.5 hPa | 0 mm | - | - | - |
| 1777819869 | 11.11° C | 54% | 1015.4 hPa | 0 mm | - | - | - |
| 1777819566 | 11.11° C | 54% | 1015.4 hPa | 0 mm | - | - | - |
| 1777818960 | 10.56° C | 55% | 1015.2 hPa | 0 mm | - | - | - |
| 1777817747 | 11.11° C | 59% | 1015.3 hPa | 0 mm | - | - | - |
| 1777817140 | 10° C | 61% | 1015.6 hPa | 0 mm | - | - | - |
| 1777816232 | 10.56° C | 58% | 1015.2 hPa | 0 mm | - | - | - |
| 1777810477 | 8.33° C | 66% | 1015 hPa | 0 mm | - | - | - |
| 1777810173 | 7.78° C | 67% | 1014.8 hPa | 0 mm | - | - | - |
| 1777809568 | 7.78° C | 67% | 1014.8 hPa | 0 mm | - | - | - |
| 1777808963 | 7.78° C | 66% | 1014.9 hPa | 0 mm | - | - | - |
| 1777808660 | 7.78° C | 67% | 1014.8 hPa | 0 mm | - | - | - |
| 1777807752 | 7.78° C | 67% | 1014.7 hPa | 0 mm | - | - | - |
| 1777804420 | 7.78° C | 68% | 1014 hPa | 0 mm | - | - | - |
| 1777804117 | 7.78° C | 68% | 1013.8 hPa | 0 mm | - | - | - |
| 1777803207 | 7.78° C | 69% | 1013.5 hPa | 0 mm | - | - | - |
| 1777802903 | 7.78° C | 68% | 1013.6 hPa | 0 mm | - | - | - |
| 1777802601 | 7.78° C | 68% | 1013.5 hPa | 0 mm | - | - | - |
| 1777802298 | 7.78° C | 67% | 1013.3 hPa | 0 mm | - | - | - |
| 1777801694 | 7.78° C | 69% | 1012.9 hPa | 0 mm | - | - | - |
| 1777801083 | 7.78° C | 69% | 1013.1 hPa | 0 mm | - | - | - |
| 1777800779 | 7.78° C | 68% | 1013 hPa | 0 mm | - | - | - |
| 1777800474 | 7.78° C | 69% | 1012.8 hPa | 0 mm | - | - | - |
| 1777800171 | 7.78° C | 69% | 1012.9 hPa | 0 mm | - | - | - |
| 1777799871 | 7.78° C | 70% | 1012.9 hPa | 0 mm | - | - | - |
* Rain latest hour (hover to see other rain measurements)
** Current wind speed in m/s (hover to see current wind gust speed)